Terminal Aerodrome Forecast
Issued by NWS

Home | Current Version | Previous Version | Text Only | Print | Product List | Glossary Off
Versions: 1 2 3 4 5 6 7 8 9 10 11 12 13 14 15 16 17 18 19 20 21 22 23

000
FTUS43 KICT 031722
TAFRSL
TAF
KRSL 031722Z 0318/0418 20011KT P6SM FEW090
     FM040100 18010KT P6SM VCTS SCT050CB BKN090
     FM040900 VRB03KT P6SM OVC090
     FM041200 04008KT P6SM FEW020 SCT060 BKN090=

USA.gov is the U.S. government's official web portal to all federal, state and local government web resources and services.